createdAt,value
2023-08-25T00:00:57.943Z,98738.63
2023-08-25T00:01:59.760Z,98742.63
2023-08-25T00:03:01.745Z,98733.97
2023-08-25T00:04:03.714Z,98732.38
2023-08-25T00:05:05.904Z,98730.53
2023-08-25T00:06:07.672Z,98740.44
2023-08-25T00:07:09.712Z,98738.56
2023-08-25T00:08:11.464Z,98742.84
2023-08-25T00:09:14.164Z,98738.78
2023-08-25T00:10:15.982Z,98731.28
2023-08-25T00:11:17.730Z,98738.16
2023-08-25T00:12:19.488Z,98734.72
2023-08-25T00:13:21.892Z,98741.19
2023-08-25T00:14:23.643Z,98729.38
2023-08-25T00:15:25.445Z,98724.66
2023-08-25T00:16:27.161Z,98726.84
2023-08-25T00:17:28.914Z,98728.44
2023-08-25T00:18:30.746Z,98713.03
2023-08-25T00:19:32.544Z,98718.13
2023-08-25T00:20:34.379Z,98719.94
2023-08-25T00:21:36.166Z,98722.84
2023-08-25T00:22:38.499Z,98727.38
2023-08-25T00:23:40.242Z,98714.47
2023-08-25T00:24:41.966Z,98714.19
2023-08-25T00:25:46.171Z,98721.66
2023-08-25T00:26:48.219Z,98717.88
2023-08-25T00:27:50.135Z,98718.69
2023-08-25T00:28:51.858Z,98715.97
2023-08-25T00:29:54.379Z,98718.09
2023-08-25T00:30:56.267Z,98712.78
2023-08-25T00:31:58.106Z,98714.38
2023-08-25T00:32:59.874Z,98713.00
2023-08-25T00:34:03.758Z,98719.13
2023-08-25T00:35:06.470Z,98721.53
2023-08-25T00:36:08.320Z,98730.31
2023-08-25T00:37:10.096Z,98727.09
2023-08-25T00:38:12.772Z,98726.03
2023-08-25T00:39:14.522Z,98735.41
2023-08-25T00:40:16.312Z,98733.53
2023-08-25T00:41:18.046Z,98735.13
2023-08-25T00:42:19.778Z,98734.03
2023-08-25T00:43:21.572Z,98734.03
2023-08-25T00:44:23.276Z,98734.03
2023-08-25T00:45:25.081Z,98729.44
2023-08-25T00:46:27.073Z,98739.13
2023-08-25T00:47:29.318Z,98732.94
2023-08-25T00:48:31.465Z,98728.94
2023-08-25T00:49:34.194Z,98730.75
2023-08-25T00:50:36.473Z,98727.25
2023-08-25T00:51:38.573Z,98737.75
2023-08-25T00:52:41.794Z,98733.16
2023-08-25T00:53:45.257Z,98742.00
2023-08-25T00:54:49.702Z,98742.00
2023-08-25T00:55:54.103Z,98743.13
2023-08-25T00:56:56.564Z,98743.94
2023-08-25T00:57:59.082Z,98743.13
2023-08-25T00:59:01.156Z,98746.13
2023-08-25T01:00:03.585Z,98746.47
2023-08-25T01:01:05.771Z,98741.19
2023-08-25T01:02:09.270Z,98747.38
2023-08-25T01:03:11.567Z,98741.75
2023-08-25T01:04:14.213Z,98731.56
2023-08-25T01:05:17.760Z,98748.91
2023-08-25T01:06:19.677Z,98744.66
2023-08-25T01:07:21.441Z,98749.03
2023-08-25T01:08:23.552Z,98748.53
2023-08-25T01:09:26.554Z,98748.94
2023-08-25T01:10:37.365Z,98760.69
2023-08-25T01:11:45.729Z,98756.44
2023-08-25T01:13:09.237Z,98751.69
2023-08-25T01:14:23.529Z,98754.72
2023-08-25T01:15:33.354Z,98758.50
2023-08-25T01:16:41.050Z,98756.63
2023-08-25T01:17:58.020Z,98759.09
2023-08-25T01:19:05.081Z,98763.44
2023-08-25T01:20:09.679Z,98764.38
2023-08-25T01:21:12.511Z,98766.50
2023-08-25T01:22:18.526Z,98757.03
2023-08-25T01:23:20.202Z,98760.81
2023-08-25T01:24:29.299Z,98755.94
2023-08-25T01:25:32.167Z,98760.75
2023-08-25T01:26:33.981Z,98762.88
2023-08-25T01:27:36.147Z,98763.97
2023-08-25T01:28:44.274Z,98759.69
2023-08-25T01:29:46.074Z,98754.56
2023-08-25T01:30:51.470Z,98762.88
2023-08-25T01:31:53.222Z,98754.81
2023-08-25T01:32:55.583Z,98761.00
2023-08-25T01:33:57.620Z,98755.38
2023-08-25T01:34:59.533Z,98763.41
2023-08-25T01:36:15.347Z,98766.16
2023-08-25T01:37:29.696Z,98768.56
2023-08-25T01:38:31.366Z,98763.97
2023-08-25T01:39:36.668Z,98768.25
2023-08-25T01:40:45.988Z,98765.00
2023-08-25T01:41:50.681Z,98769.00
2023-08-25T01:42:57.753Z,98767.38
2023-08-25T01:44:06.079Z,98769.78
2023-08-25T01:45:08.415Z,98770.88
2023-08-25T01:46:12.191Z,98767.69
2023-08-25T01:47:18.084Z,98768.78
2023-08-25T01:48:20.933Z,98761.03
2023-08-25T01:49:23.558Z,98765.63
2023-08-25T01:50:25.483Z,98753.25
2023-08-25T01:51:29.866Z,98762.94
2023-08-25T01:52:32.484Z,98758.72
2023-08-25T01:53:34.261Z,98762.84
2023-08-25T01:54:36.755Z,98764.28
2023-08-25T01:55:39.037Z,98771.47
2023-08-25T01:56:40.945Z,98770.09
2023-08-25T01:57:42.689Z,98766.31
2023-08-25T01:58:44.433Z,98773.81
2023-08-25T01:59:46.244Z,98768.69
2023-08-25T02:00:47.984Z,98768.69
2023-08-25T02:01:50.105Z,98763.00
2023-08-25T02:02:52.024Z,98765.41
2023-08-25T02:03:54.161Z,98761.63
2023-08-25T02:04:56.043Z,98769.41
2023-08-25T02:05:58.177Z,98764.59
2023-08-25T02:07:00.379Z,98767.50
2023-08-25T02:08:02.100Z,98771.00
2023-08-25T02:09:04.354Z,98766.94
2023-08-25T02:10:06.572Z,98777.44
2023-08-25T02:11:08.592Z,98773.41
2023-08-25T02:12:10.358Z,98771.25
2023-08-25T02:13:12.145Z,98771.25
2023-08-25T02:14:13.917Z,98769.13
2023-08-25T02:15:15.827Z,98771.81
2023-08-25T02:16:17.619Z,98772.09
2023-08-25T02:17:19.365Z,98767.81
2023-08-25T02:18:21.129Z,98779.09
2023-08-25T02:19:23.018Z,98772.63
2023-08-25T02:20:27.138Z,98771.53
2023-08-25T02:21:28.942Z,98769.41
2023-08-25T02:22:30.694Z,98772.09
2023-08-25T02:23:32.449Z,98770.50
2023-08-25T02:24:34.426Z,98769.69
2023-08-25T02:25:36.177Z,98750.25
2023-08-25T02:26:37.918Z,98772.78
2023-08-25T02:27:39.623Z,98781.91
2023-08-25T02:28:41.390Z,98776.34
2023-08-25T02:29:43.236Z,98781.47
2023-08-25T02:30:45.054Z,98784.16
2023-08-25T02:31:46.915Z,98792.22
2023-08-25T02:32:48.780Z,98785.84
2023-08-25T02:33:50.514Z,98790.94
2023-08-25T02:34:52.369Z,98792.78
2023-08-25T02:35:54.152Z,98788.78
2023-08-25T02:36:55.948Z,98797.66
2023-08-25T02:38:01.702Z,98796.03
2023-08-25T02:39:04.522Z,98792.81
2023-08-25T02:40:07.003Z,98798.72
2023-08-25T02:41:08.775Z,98800.91
2023-08-25T02:42:10.490Z,98806.28
2023-08-25T02:43:12.504Z,98811.66
2023-08-25T02:44:14.236Z,98803.81
2023-08-25T02:45:16.056Z,98810.53
2023-08-25T02:46:17.824Z,98804.34
2023-08-25T02:47:19.675Z,98804.09
2023-08-25T02:48:21.392Z,98803.06
2023-08-25T02:49:23.271Z,98800.38
2023-08-25T02:50:25.741Z,98783.56
2023-08-25T02:51:27.493Z,98802.53
2023-08-25T02:52:29.376Z,98802.25
2023-08-25T02:53:31.099Z,98800.66
2023-08-25T02:54:35.523Z,98789.97
2023-08-25T02:55:39.079Z,98795.91
2023-08-25T02:56:40.816Z,98791.63
2023-08-25T02:57:42.573Z,98794.81
2023-08-25T02:58:44.311Z,98788.66
2023-08-25T02:59:46.070Z,98792.69
2023-08-25T03:00:47.870Z,98792.69
2023-08-25T03:01:49.710Z,98785.44
2023-08-25T03:02:54.024Z,98792.97
2023-08-25T03:03:56.883Z,98788.66
2023-08-25T03:04:58.678Z,98787.84
2023-08-25T03:06:00.790Z,98784.88
2023-08-25T03:07:02.551Z,98780.31
2023-08-25T03:08:06.041Z,98777.31
2023-08-25T03:09:08.079Z,98787.00
2023-08-25T03:10:10.448Z,98784.34
2023-08-25T03:11:12.208Z,98773.66
2023-08-25T03:12:13.952Z,98781.13
2023-08-25T03:13:17.633Z,98778.44
2023-08-25T03:14:27.844Z,98781.66
2023-08-25T03:15:29.596Z,98785.69
2023-08-25T03:16:31.337Z,98792.66
2023-08-25T03:17:33.264Z,98785.91
2023-08-25T03:18:35.371Z,98784.59
2023-08-25T03:19:38.772Z,98797.16
2023-08-25T03:20:40.562Z,98802.06
2023-08-25T03:21:42.489Z,98799.84
2023-08-25T03:22:44.246Z,98806.84
2023-08-25T03:23:46.074Z,98803.06
2023-08-25T03:24:47.985Z,98813.25
2023-08-25T03:25:49.864Z,98813.25
2023-08-25T03:26:51.583Z,98818.94
2023-08-25T03:27:53.573Z,98814.88
2023-08-25T03:28:55.585Z,98819.16
2023-08-25T03:29:57.394Z,98823.47
2023-08-25T03:30:59.424Z,98821.56
2023-08-25T03:32:01.633Z,98822.66
2023-08-25T03:33:04.705Z,98818.38
2023-08-25T03:34:06.575Z,98825.63
2023-08-25T03:35:09.551Z,98821.91
2023-08-25T03:36:11.290Z,98825.66
2023-08-25T03:37:13.043Z,98823.59
2023-08-25T03:38:14.811Z,98830.59
2023-08-25T03:39:18.964Z,98831.69
2023-08-25T03:40:20.730Z,98830.06
2023-08-25T03:41:22.463Z,98833.03
2023-08-25T03:42:24.170Z,98834.38
2023-08-25T03:43:25.921Z,98838.66
2023-08-25T03:44:27.749Z,98836.78
2023-08-25T03:45:29.491Z,98834.38
2023-08-25T03:46:33.300Z,98830.59
2023-08-25T03:47:35.170Z,98836.50
2023-08-25T03:48:36.921Z,98829.50
2023-08-25T03:49:38.662Z,98829.78
2023-08-25T03:50:40.477Z,98823.66
2023-08-25T03:51:42.313Z,98827.22
2023-08-25T03:52:45.391Z,98825.31
2023-08-25T03:53:47.159Z,98831.50
2023-08-25T03:54:48.923Z,98816.22
2023-08-25T03:55:50.667Z,98822.50
2023-08-25T03:56:52.427Z,98820.09
2023-08-25T03:57:54.377Z,98824.72
2023-08-25T03:58:56.408Z,98822.56
2023-08-25T03:59:58.188Z,98827.59
2023-08-25T04:01:00.601Z,98815.22
2023-08-25T04:02:03.794Z,98820.53
2023-08-25T04:03:07.872Z,98818.94
2023-08-25T04:04:09.775Z,98815.41
2023-08-25T04:05:11.556Z,98810.84
2023-08-25T04:06:13.330Z,98819.88
2023-08-25T04:07:15.148Z,98804.34
2023-08-25T04:08:16.981Z,98810.72
2023-08-25T04:09:18.688Z,98805.88
2023-08-25T04:10:20.550Z,98810.41
2023-08-25T04:11:22.389Z,98804.94
2023-08-25T04:12:24.124Z,98814.34
2023-08-25T04:13:26.696Z,98814.31
2023-08-25T04:14:28.428Z,98804.56
2023-08-25T04:15:30.329Z,98805.25
2023-08-25T04:16:32.128Z,98813.78
2023-08-25T04:17:36.679Z,98807.56
2023-08-25T04:18:38.483Z,98816.56
2023-08-25T04:19:40.384Z,98813.88
2023-08-25T04:20:42.183Z,98807.31
2023-08-25T04:21:46.767Z,98819.03
2023-08-25T04:22:48.560Z,98818.41
2023-08-25T04:23:50.282Z,98819.63
2023-08-25T04:24:52.100Z,98820.28
2023-08-25T04:25:53.877Z,98815.56
2023-08-25T04:26:55.720Z,98818.31
2023-08-25T04:27:59.317Z,98820.59
2023-08-25T04:29:01.083Z,98812.94
2023-08-25T04:30:02.932Z,98817.59
2023-08-25T04:31:04.713Z,98807.94
2023-08-25T04:32:06.510Z,98807.75
2023-08-25T04:33:08.314Z,98805.38
2023-08-25T04:34:10.060Z,98802.50
2023-08-25T04:35:11.807Z,98802.31
2023-08-25T04:36:15.010Z,98805.66
2023-08-25T04:37:17.325Z,98809.34
2023-08-25T04:38:19.222Z,98812.97
2023-08-25T04:39:20.939Z,98819.13
2023-08-25T04:40:23.303Z,98820.75
2023-08-25T04:41:25.064Z,98821.22
2023-08-25T04:42:27.771Z,98817.69
2023-08-25T04:43:29.493Z,98822.44
2023-08-25T04:44:31.228Z,98822.84
2023-08-25T04:45:33.010Z,98812.00
2023-08-25T04:46:34.826Z,98822.84
2023-08-25T04:47:36.847Z,98824.31
2023-08-25T04:48:40.797Z,98828.25
2023-08-25T04:49:44.377Z,98822.28
2023-08-25T04:50:46.185Z,98835.28
2023-08-25T04:51:47.948Z,98832.63
2023-08-25T04:52:49.782Z,98829.19
2023-08-25T04:53:51.596Z,98823.47
2023-08-25T04:54:53.339Z,98835.91
2023-08-25T04:55:55.254Z,98826.81
2023-08-25T04:56:57.007Z,98833.88
2023-08-25T04:57:58.873Z,98830.66
2023-08-25T04:59:00.615Z,98831.72
2023-08-25T05:00:06.764Z,98829.63
2023-08-25T05:01:08.580Z,98827.53
2023-08-25T05:02:10.411Z,98837.88
2023-08-25T05:03:12.212Z,98830.41
2023-08-25T05:04:13.984Z,98820.81
2023-08-25T05:05:18.181Z,98828.22
2023-08-25T05:06:19.951Z,98839.31
2023-08-25T05:07:21.677Z,98827.06
2023-08-25T05:08:23.537Z,98827.72
2023-08-25T05:09:25.280Z,98832.38
2023-08-25T05:10:27.017Z,98819.72
2023-08-25T05:11:28.782Z,98826.22
2023-08-25T05:12:31.145Z,98820.88
2023-08-25T05:13:32.913Z,98824.84
2023-08-25T05:14:34.711Z,98822.13
2023-08-25T05:15:36.514Z,98819.84
2023-08-25T05:16:38.376Z,98813.72
2023-08-25T05:17:40.265Z,98809.53
2023-08-25T05:18:42.227Z,98811.13
2023-08-25T05:19:44.228Z,98811.94
2023-08-25T05:20:46.002Z,98811.75
2023-08-25T05:21:47.900Z,98815.38
2023-08-25T05:22:52.086Z,98799.25
2023-08-25T05:24:16.356Z,98819.00
2023-08-25T05:25:24.550Z,98826.16
2023-08-25T05:26:26.278Z,98830.44
2023-08-25T05:27:28.141Z,98826.56
2023-08-25T05:28:30.037Z,98835.38
2023-08-25T05:29:31.812Z,98838.63
2023-08-25T05:30:33.619Z,98840.59
2023-08-25T05:31:35.443Z,98845.78
2023-08-25T05:32:37.341Z,98836.75
2023-08-25T05:33:39.673Z,98843.63
2023-08-25T05:34:41.407Z,98840.75
2023-08-25T05:35:43.364Z,98836.09
2023-08-25T05:36:45.685Z,98843.19
2023-08-25T05:37:47.413Z,98837.53
2023-08-25T05:38:49.144Z,98841.78
2023-08-25T05:39:50.953Z,98837.00
2023-08-25T05:40:52.731Z,98843.97
2023-08-25T05:41:54.562Z,98843.03
2023-08-25T05:42:56.318Z,98840.19
2023-08-25T05:43:58.209Z,98849.16
2023-08-25T05:44:59.964Z,98851.94
2023-08-25T05:46:01.756Z,98844.41
2023-08-25T05:47:04.767Z,98854.44
2023-08-25T05:48:06.934Z,98846.38
2023-08-25T05:49:08.789Z,98855.25
2023-08-25T05:50:11.045Z,98853.88
2023-08-25T05:51:12.778Z,98845.44
2023-08-25T05:52:14.571Z,98847.97
2023-08-25T05:53:16.410Z,98848.75
2023-08-25T05:54:18.137Z,98849.69
2023-08-25T05:55:20.319Z,98847.19
2023-08-25T05:56:22.415Z,98858.72
2023-08-25T05:57:25.094Z,98858.00
2023-08-25T05:58:26.817Z,98866.94
2023-08-25T05:59:28.671Z,98869.06
2023-08-25T06:00:30.512Z,98868.97
2023-08-25T06:01:33.673Z,98873.78
2023-08-25T06:02:35.629Z,98869.09
2023-08-25T06:03:37.432Z,98872.41
2023-08-25T06:04:39.223Z,98861.53
2023-08-25T06:05:44.034Z,98862.22
2023-08-25T06:06:45.786Z,98863.63
2023-08-25T06:07:47.503Z,98858.66
2023-08-25T06:08:49.302Z,98851.38
2023-08-25T06:09:51.064Z,98855.47
2023-08-25T06:10:55.598Z,98854.81
2023-08-25T06:11:57.382Z,98859.91
2023-08-25T06:12:59.114Z,98852.31
2023-08-25T06:14:00.844Z,98856.00
2023-08-25T06:15:02.635Z,98859.31
2023-08-25T06:16:04.837Z,98860.66
2023-08-25T06:17:06.846Z,98855.56
2023-08-25T06:18:08.662Z,98859.88
2023-08-25T06:19:10.446Z,98853.75
2023-08-25T06:20:13.360Z,98860.06
2023-08-25T06:21:15.165Z,98848.28
2023-08-25T06:22:16.899Z,98855.97
2023-08-25T06:23:19.106Z,98849.09
2023-08-25T06:24:20.823Z,98845.41
2023-08-25T06:25:22.564Z,98846.16
2023-08-25T06:26:24.325Z,98849.59
2023-08-25T06:27:26.403Z,98844.94
2023-08-25T06:28:30.324Z,98849.66
2023-08-25T06:29:32.043Z,98849.63
2023-08-25T06:30:37.268Z,98851.81
2023-08-25T06:31:39.101Z,98852.50
2023-08-25T06:32:40.960Z,98850.38
2023-08-25T06:33:43.010Z,98859.16
2023-08-25T06:34:49.678Z,98858.06
2023-08-25T06:35:51.427Z,98842.09
2023-08-25T06:36:53.164Z,98853.66
2023-08-25T06:37:55.219Z,98856.50
2023-08-25T06:38:57.868Z,98855.91
2023-08-25T06:39:59.734Z,98853.66
2023-08-25T06:41:01.577Z,98854.75
2023-08-25T06:42:03.395Z,98864.88
2023-08-25T06:43:05.342Z,98857.81
2023-08-25T06:44:07.056Z,98867.38
2023-08-25T06:45:09.063Z,98864.53
2023-08-25T06:46:10.798Z,98869.22
2023-08-25T06:47:12.567Z,98864.81
2023-08-25T06:48:14.502Z,98866.31
2023-08-25T06:49:16.317Z,98862.34
2023-08-25T06:50:18.239Z,98866.78
2023-08-25T06:51:19.972Z,98866.94
2023-08-25T06:52:22.435Z,98865.28
2023-08-25T06:53:25.443Z,98861.56
2023-08-25T06:54:27.970Z,98861.03
2023-08-25T06:55:29.808Z,98859.50
2023-08-25T06:56:31.612Z,98863.94
2023-08-25T06:57:35.667Z,98857.34
2023-08-25T06:58:38.226Z,98858.28
2023-08-25T06:59:40.123Z,98855.47
2023-08-25T07:00:41.839Z,98854.78
2023-08-25T07:01:45.088Z,98859.16
2023-08-25T07:02:47.191Z,98856.69
2023-08-25T07:03:49.443Z,98858.78
2023-08-25T07:04:51.215Z,98847.84
2023-08-25T07:05:58.737Z,98845.38
2023-08-25T07:07:01.286Z,98840.44
2023-08-25T07:08:03.672Z,98847.84
2023-08-25T07:09:05.399Z,98850.16
2023-08-25T07:10:07.790Z,98842.34
2023-08-25T07:11:09.550Z,98852.38
2023-08-25T07:12:11.433Z,98848.59
2023-08-25T07:13:13.221Z,98851.97
2023-08-25T07:14:15.247Z,98853.78
2023-08-25T07:15:17.107Z,98861.06
2023-08-25T07:16:19.132Z,98854.84
2023-08-25T07:17:20.924Z,98855.41
2023-08-25T07:18:25.841Z,98861.00
2023-08-25T07:19:27.626Z,98861.47
2023-08-25T07:20:29.732Z,98853.25
2023-08-25T07:21:31.539Z,98856.84
2023-08-25T07:22:33.798Z,98848.97
2023-08-25T07:23:35.573Z,98843.84
2023-08-25T07:24:37.341Z,98849.00
2023-08-25T07:25:44.711Z,98852.53
2023-08-25T07:26:46.742Z,98848.59
2023-08-25T07:27:48.673Z,98850.13
2023-08-25T07:28:50.994Z,98848.19
2023-08-25T07:29:55.402Z,98843.88
2023-08-25T07:30:58.148Z,98839.53
2023-08-25T07:31:59.966Z,98832.84
2023-08-25T07:33:01.773Z,98845.06
2023-08-25T07:34:04.283Z,98847.75
2023-08-25T07:35:06.523Z,98843.81
2023-08-25T07:36:08.330Z,98833.59
2023-08-25T07:37:10.277Z,98840.63
2023-08-25T07:38:12.486Z,98833.88
2023-08-25T07:39:14.428Z,98835.81
2023-08-25T07:40:16.186Z,98831.88
2023-08-25T07:41:23.819Z,98839.81
2023-08-25T07:42:25.678Z,98832.38
2023-08-25T07:43:27.535Z,98833.66
2023-08-25T07:44:29.283Z,98832.06
2023-08-25T07:45:32.439Z,98833.63
2023-08-25T07:46:39.048Z,98827.72
2023-08-25T07:47:40.932Z,98826.50
2023-08-25T07:48:42.874Z,98829.28
2023-08-25T07:49:44.847Z,98830.06
2023-08-25T07:50:46.652Z,98824.94
2023-08-25T07:51:48.395Z,98819.84
2023-08-25T07:52:50.139Z,98824.91
2023-08-25T07:53:51.897Z,98821.31
2023-08-25T07:54:53.638Z,98828.78
2023-08-25T07:55:59.160Z,98826.00
2023-08-25T07:57:01.022Z,98825.53
2023-08-25T07:58:03.815Z,98817.53
2023-08-25T07:59:06.927Z,98819.09
2023-08-25T08:00:13.486Z,98826.94
2023-08-25T08:01:15.897Z,98827.56
2023-08-25T08:02:17.666Z,98827.56
2023-08-25T08:03:20.473Z,98829.09
2023-08-25T08:04:22.323Z,98829.06
2023-08-25T08:05:24.054Z,98821.88
2023-08-25T08:06:25.961Z,98825.16
2023-08-25T08:07:27.884Z,98830.53
2023-08-25T08:08:29.606Z,98824.09
2023-08-25T08:09:33.040Z,98825.16
2023-08-25T08:10:34.825Z,98819.56
2023-08-25T08:11:36.789Z,98815.97
2023-08-25T08:12:40.318Z,98822.53
2023-08-25T08:13:42.102Z,98813.13
2023-08-25T08:14:46.411Z,98811.34
2023-08-25T08:15:48.621Z,98815.81
2023-08-25T08:16:50.442Z,98809.00
2023-08-25T08:17:52.593Z,98822.66
2023-08-25T08:18:55.111Z,98815.63
2023-08-25T08:19:56.855Z,98815.84
2023-08-25T08:20:58.563Z,98815.59
2023-08-25T08:22:00.378Z,98827.16
2023-08-25T08:23:02.176Z,98821.75
2023-08-25T08:24:05.005Z,98823.56
2023-08-25T08:25:10.320Z,98825.63
2023-08-25T08:26:12.525Z,98813.91
2023-08-25T08:27:16.688Z,98817.47
2023-08-25T08:28:18.503Z,98816.25
2023-08-25T08:29:20.234Z,98822.22
2023-08-25T08:30:22.186Z,98821.47
2023-08-25T08:31:24.115Z,98823.00
2023-08-25T08:32:25.916Z,98817.22
2023-08-25T08:33:27.770Z,98819.50
2023-08-25T08:34:29.499Z,98820.00
2023-08-25T08:35:33.453Z,98818.94
2023-08-25T08:36:35.863Z,98812.50
2023-08-25T08:37:38.046Z,98816.75
2023-08-25T08:38:39.800Z,98811.44
2023-08-25T08:39:41.646Z,98817.78
2023-08-25T08:40:43.627Z,98808.25
2023-08-25T08:41:48.605Z,98805.84
2023-08-25T08:42:53.797Z,98801.91
2023-08-25T08:43:58.170Z,98804.94
2023-08-25T08:45:05.329Z,98799.59
2023-08-25T08:46:08.393Z,98800.13
2023-08-25T08:47:10.956Z,98802.66
2023-08-25T08:48:15.079Z,98795.75
2023-08-25T08:49:16.917Z,98807.16
2023-08-25T08:50:19.437Z,98800.66
2023-08-25T08:51:23.237Z,98801.13
2023-08-25T08:52:25.382Z,98789.94
2023-08-25T08:53:28.237Z,98795.22
2023-08-25T08:54:32.065Z,98802.72
2023-08-25T08:55:34.568Z,98797.31
2023-08-25T08:56:36.586Z,98801.34
2023-08-25T08:57:38.375Z,98795.59
2023-08-25T08:58:40.196Z,98790.72
2023-08-25T08:59:43.554Z,98790.72
2023-08-25T09:00:45.482Z,98788.88
2023-08-25T09:01:49.606Z,98793.03
2023-08-25T09:02:54.855Z,98792.19
2023-08-25T09:03:59.414Z,98786.41
2023-08-25T09:05:02.216Z,98787.47
2023-08-25T09:06:04.703Z,98785.81
2023-08-25T09:07:08.167Z,98783.31
2023-08-25T09:08:11.074Z,98779.53
2023-08-25T09:09:15.816Z,98777.94
2023-08-25T09:10:17.666Z,98780.09
2023-08-25T09:11:19.436Z,98784.97
2023-08-25T09:12:26.437Z,98777.38
2023-08-25T09:13:28.239Z,98773.09
2023-08-25T09:14:30.868Z,98781.88
2023-08-25T09:15:35.303Z,98767.53
2023-08-25T09:16:37.711Z,98774.81
2023-08-25T09:17:39.875Z,98769.88
2023-08-25T09:18:42.009Z,98767.47
2023-08-25T09:19:43.836Z,98770.59
2023-08-25T09:20:45.690Z,98769.41
2023-08-25T09:21:47.996Z,98767.94
2023-08-25T09:22:57.157Z,98770.34
2023-08-25T09:24:01.778Z,98769.72
2023-08-25T09:25:03.600Z,98765.38
2023-08-25T09:26:05.516Z,98765.44
2023-08-25T09:27:07.444Z,98763.13
2023-08-25T09:28:10.743Z,98765.03
2023-08-25T09:29:12.707Z,98764.13
2023-08-25T09:30:15.775Z,98755.84
2023-08-25T09:31:29.520Z,98760.97
2023-08-25T09:32:32.212Z,98757.16
2023-08-25T09:33:35.348Z,98758.69
2023-08-25T09:34:37.155Z,98761.81
2023-08-25T09:35:38.990Z,98759.75
2023-08-25T09:36:57.174Z,98752.56
2023-08-25T09:37:58.983Z,98749.69
2023-08-25T09:39:06.214Z,98752.38
2023-08-25T09:40:13.934Z,98756.63
2023-08-25T09:41:27.146Z,98751.34
2023-08-25T09:42:29.618Z,98749.75
2023-08-25T09:43:34.431Z,98752.97
2023-08-25T09:44:36.188Z,98744.22
2023-08-25T09:45:39.920Z,98749.00
2023-08-25T09:46:41.679Z,98747.44
2023-08-25T09:47:43.727Z,98745.22
2023-08-25T09:48:46.556Z,98738.91
2023-08-25T09:49:48.492Z,98732.59
2023-08-25T09:50:50.983Z,98730.38
2023-08-25T09:51:55.596Z,98741.53
2023-08-25T09:52:57.595Z,98741.47
2023-08-25T09:54:00.034Z,98735.38
2023-08-25T09:55:01.900Z,98738.34
2023-08-25T09:56:08.243Z,98728.72
2023-08-25T09:57:10.581Z,98731.09
2023-08-25T09:58:15.319Z,98728.94
2023-08-25T09:59:17.419Z,98725.50
2023-08-25T10:00:20.693Z,98720.59
2023-08-25T10:01:23.103Z,98720.41
2023-08-25T10:02:26.276Z,98716.66
2023-08-25T10:03:28.602Z,98710.78
2023-08-25T10:04:30.422Z,98713.31
2023-08-25T10:05:36.085Z,98714.13
2023-08-25T10:06:39.592Z,98719.91
2023-08-25T10:07:44.129Z,98709.94
2023-08-25T10:08:47.569Z,98710.13
2023-08-25T10:09:50.136Z,98713.34
2023-08-25T10:10:51.924Z,98705.38
2023-08-25T10:11:56.697Z,98705.00
2023-08-25T10:12:59.795Z,98705.09
2023-08-25T10:14:04.128Z,98706.88
2023-08-25T10:15:09.371Z,98696.81
2023-08-25T10:16:13.357Z,98692.97
2023-08-25T10:17:16.792Z,98690.63
2023-08-25T10:18:19.040Z,98693.34
2023-08-25T10:19:24.854Z,98695.16
2023-08-25T10:20:27.704Z,98688.91
2023-08-25T10:21:32.101Z,98694.53
2023-08-25T10:22:35.886Z,98687.19
2023-08-25T10:23:39.325Z,98691.59
2023-08-25T10:24:42.560Z,98695.59
2023-08-25T10:25:45.001Z,98698.41
2023-08-25T10:26:48.217Z,98691.88
2023-08-25T10:27:50.560Z,98685.28
2023-08-25T10:28:53.559Z,98681.78
2023-08-25T10:29:56.029Z,98681.38
2023-08-25T10:30:57.907Z,98688.75
2023-08-25T10:32:01.644Z,98682.84
2023-08-25T10:33:10.324Z,98684.50
2023-08-25T10:34:30.445Z,98681.47
2023-08-25T10:35:46.750Z,98678.28
2023-08-25T10:36:49.278Z,98673.00
2023-08-25T10:37:54.165Z,98680.91
2023-08-25T10:38:56.108Z,98674.72
2023-08-25T10:40:00.922Z,98678.28
2023-08-25T10:41:15.335Z,98673.59
2023-08-25T10:42:34.397Z,98669.50
2023-08-25T10:43:38.739Z,98671.75
2023-08-25T10:44:43.542Z,98668.53
2023-08-25T10:45:52.068Z,98667.19
2023-08-25T10:47:03.352Z,98659.31
2023-08-25T10:48:05.529Z,98660.38
2023-08-25T10:49:12.891Z,98669.38
2023-08-25T10:50:20.858Z,98664.09
2023-08-25T10:51:22.700Z,98666.28
2023-08-25T10:52:24.989Z,98662.75
2023-08-25T10:53:40.011Z,98661.25
2023-08-25T10:54:43.106Z,98669.47
2023-08-25T10:55:46.667Z,98655.13
2023-08-25T10:56:48.456Z,98668.28
2023-08-25T10:57:54.749Z,98655.84
2023-08-25T10:58:56.713Z,98662.06
2023-08-25T11:00:25.058Z,98661.16
2023-08-25T11:01:29.246Z,98655.44
2023-08-25T11:02:38.526Z,98659.22
2023-08-25T11:04:05.274Z,98658.59
2023-08-25T11:05:33.253Z,98651.81
2023-08-25T11:06:40.918Z,98646.06
2023-08-25T11:07:44.020Z,98638.16
2023-08-25T11:08:46.717Z,98636.97
2023-08-25T11:09:48.473Z,98642.13
2023-08-25T11:11:11.495Z,98645.25
2023-08-25T11:12:13.587Z,98641.72
2023-08-25T11:13:17.060Z,98636.94
2023-08-25T11:14:19.045Z,98643.47
2023-08-25T11:15:23.201Z,98635.28
2023-08-25T11:16:25.006Z,98636.94
2023-08-25T11:17:27.196Z,98635.59
2023-08-25T11:18:29.156Z,98638.19
2023-08-25T11:19:33.542Z,98633.31
2023-08-25T11:20:35.754Z,98625.50
2023-08-25T11:21:37.762Z,98632.53
2023-08-25T11:23:13.174Z,98638.00
2023-08-25T11:24:24.782Z,98628.66
2023-08-25T11:25:28.337Z,98632.03
2023-08-25T11:26:31.803Z,98632.78
2023-08-25T11:27:33.526Z,98632.09
2023-08-25T11:28:37.677Z,98632.28
2023-08-25T11:29:46.894Z,98627.97
2023-08-25T11:30:49.083Z,98620.72
2023-08-25T11:31:50.858Z,98617.00
2023-08-25T11:32:53.290Z,98625.69
2023-08-25T11:33:56.423Z,98620.50
2023-08-25T11:34:58.259Z,98621.50
2023-08-25T11:36:01.168Z,98627.97
2023-08-25T11:37:03.355Z,98631.31
2023-08-25T11:38:05.296Z,98615.34
2023-08-25T11:39:07.040Z,98621.03
2023-08-25T11:40:31.426Z,98623.50
2023-08-25T11:41:33.699Z,98616.22
2023-08-25T11:42:36.056Z,98616.50
2023-08-25T11:43:38.331Z,98604.78
2023-08-25T11:44:44.554Z,98603.78
2023-08-25T11:45:47.315Z,98610.03
2023-08-25T11:46:49.375Z,98600.44
2023-08-25T11:47:51.230Z,98598.59
2023-08-25T11:48:55.096Z,98597.56
2023-08-25T11:49:58.250Z,98604.19
2023-08-25T11:51:00.349Z,98603.25
2023-08-25T11:52:02.399Z,98605.59
2023-08-25T11:53:04.611Z,98600.75
2023-08-25T11:54:07.344Z,98595.91
2023-08-25T11:55:15.232Z,98588.09
2023-08-25T11:56:18.140Z,98593.16
2023-08-25T11:57:20.420Z,98592.78
2023-08-25T11:58:29.185Z,98595.53
2023-08-25T11:59:31.588Z,98597.09
2023-08-25T12:00:39.607Z,98593.53
2023-08-25T12:01:41.551Z,98594.63
2023-08-25T12:02:43.340Z,98592.03
2023-08-25T12:03:45.727Z,98602.97
2023-08-25T12:05:00.435Z,98598.50
2023-08-25T12:06:09.987Z,98595.34
2023-08-25T12:07:11.722Z,98591.50
2023-08-25T12:08:17.564Z,98585.91
2023-08-25T12:09:22.210Z,98593.72
2023-08-25T12:10:24.106Z,98582.97
2023-08-25T12:11:25.957Z,98599.81
2023-08-25T12:12:39.140Z,98589.38
2023-08-25T12:13:47.913Z,98590.69
2023-08-25T12:14:53.707Z,98592.63
2023-08-25T12:15:55.441Z,98586.59
2023-08-25T12:16:58.675Z,98587.66
2023-08-25T12:18:00.852Z,98584.50
2023-08-25T12:19:05.313Z,98585.31
2023-08-25T12:20:18.108Z,98586.19
2023-08-25T12:21:20.982Z,98586.31
2023-08-25T12:22:24.583Z,98581.91
2023-08-25T12:23:38.208Z,98585.25